Saga Beija-flor — VRVN8 — position and weather

sailwx.info

Track history (hours):
 
Tides and Currents Weather Stations Pressure Air Temp Water Temp Dewpoint Dewpoint Depression Visibility Wind Speed Wind Dir Waves Ship Positions

Saga Beija-flor

Last reported at 2018-Aug-14 01:38 UTC. Time now 2018-Aug-21 03:58 UTC.
Position S 24°14' W 045°53'.

Length 200 m; draft 7.9 m.

Type: Cargo ship. MMSI: 477554000.

Date/timePositionNaut miles runAvg speedWind from/ knotsBaromVisibWave heightAir tempDewpointWater temp
2018-Aug-14 01:38S 24°14' W 045°53'111.4
2018-Aug-14 01:30S 24°13' W 045°55'711.6
2018-Aug-14 00:55S 24°10' W 046°01'611.6
2018-Aug-14 00:26S 24°06' W 046°06'511.4
2018-Aug-14 00:00S 24°04' W 046°10'611.4
2018-Aug-13 23:30S 24°04' W 046°17'5 8.9
2018-Aug-13 22:59S 24°01' W 046°21'4 7.6
2018-Aug-13 22:29S 23°59' W 046°18'2 0.1
2018-Aug-13 10:31S 23°58' W 046°18'0 4.7
2018-Aug-13 10:30S 23°58' W 046°18'0 0.0
2018-Aug-12 14:04S 23°58' W 046°18'0 0.0
2018-Aug-12 13:27S 23°58' W 046°18'0 0.0
2018-Aug-12 10:14S 23°58' W 046°18'1 2.3
2018-Aug-12 10:00S 23°57' W 046°18'1 0.1
2018-Aug-12 01:39S 23°56' W 046°19'1 2.4
2018-Aug-12 01:04S 23°58' W 046°18'0 5.8
2018-Aug-12 00:59S 23°58' W 046°18'2 5.2
2018-Aug-12 00:30S 23°60' W 046°20'4 8.6
2018-Aug-12 00:00S 24°04' W 046°21'2 3.1
2018-Aug-11 23:25S 24°05' W 046°22'0 0.1
2018-Aug-11 22:55S 24°05' W 046°22'0 0.0
2018-Aug-11 22:28S 24°05' W 046°22'0 0.0
2018-Aug-11 21:55S 24°05' W 046°22'0 0.0
2018-Aug-11 21:25S 24°05' W 046°22'0 0.0
2018-Aug-11 20:58S 24°05' W 046°22'0 0.0
2018-Aug-11 20:25S 24°05' W 046°22'0 0.0
2018-Aug-11 19:58S 24°05' W 046°22'0 0.0
2018-Aug-11 19:13S 24°05' W 046°22'0 0.0
2018-Aug-11 18:58S 24°05' W 046°22'0 0.0
2018-Aug-11 18:28S 24°05' W 046°22'0 0.2
2018-Aug-11 18:00S 24°05' W 046°22'1 2.3
2018-Aug-11 17:30S 24°07' W 046°22'4 7.3
2018-Aug-11 17:00S 24°10' W 046°23'5 9.5
2018-Aug-11 16:30S 24°15' W 046°24'511.1
2018-Aug-11 16:00S 24°20' W 046°26'713.6
2018-Aug-11 15:30S 24°27' W 046°27'713.6
2018-Aug-11 15:01S 24°33' W 046°28'713.7
2018-Aug-11 14:30S 24°40' W 046°30'913.0
2018-Aug-11 13:48S 24°49' W 046°32'3 8.0
2018-Aug-11 13:24S 24°46' W 046°30'1110.8
2018-Aug-11 12:26S 24°48' W 046°41'613.0
2018-Aug-11 11:58S 24°49' W 046°48'  
Track history (hours):
 
Tides and Currents Weather Stations Pressure Air Temp Water Temp Dewpoint Dewpoint Depression Visibility Wind Speed Wind Dir Waves Ship Positions

Saga Beija-flor

Last reported at 2018-Aug-14 01:38 UTC. Time now 2018-Aug-21 03:58 UTC.
Position S 24°14' W 045°53'.

Length 200 m; draft 7.9 m.

Type: Cargo ship. MMSI: 477554000.

Date/timePositionNaut miles runAvg speedWind from/ knotsBaromVisibWave heightAir tempDewpointWater temp
2018-Aug-14 01:38S 24°14' W 045°53'111.4
2018-Aug-14 01:30S 24°13' W 045°55'711.6
2018-Aug-14 00:55S 24°10' W 046°01'611.6
2018-Aug-14 00:26S 24°06' W 046°06'511.4
2018-Aug-14 00:00S 24°04' W 046°10'611.4
2018-Aug-13 23:30S 24°04' W 046°17'5 8.9
2018-Aug-13 22:59S 24°01' W 046°21'4 7.6
2018-Aug-13 22:29S 23°59' W 046°18'2 0.1
2018-Aug-13 10:31S 23°58' W 046°18'0 4.7
2018-Aug-13 10:30S 23°58' W 046°18'0 0.0
2018-Aug-12 14:04S 23°58' W 046°18'0 0.0
2018-Aug-12 13:27S 23°58' W 046°18'0 0.0
2018-Aug-12 10:14S 23°58' W 046°18'1 2.3
2018-Aug-12 10:00S 23°57' W 046°18'1 0.1
2018-Aug-12 01:39S 23°56' W 046°19'1 2.4
2018-Aug-12 01:04S 23°58' W 046°18'0 5.8
2018-Aug-12 00:59S 23°58' W 046°18'2 5.2
2018-Aug-12 00:30S 23°60' W 046°20'4 8.6
2018-Aug-12 00:00S 24°04' W 046°21'2 3.1
2018-Aug-11 23:25S 24°05' W 046°22'0 0.1
2018-Aug-11 22:55S 24°05' W 046°22'0 0.0
2018-Aug-11 22:28S 24°05' W 046°22'0 0.0
2018-Aug-11 21:55S 24°05' W 046°22'0 0.0
2018-Aug-11 21:25S 24°05' W 046°22'0 0.0
2018-Aug-11 20:58S 24°05' W 046°22'0 0.0
2018-Aug-11 20:25S 24°05' W 046°22'0 0.0
2018-Aug-11 19:58S 24°05' W 046°22'0 0.0
2018-Aug-11 19:13S 24°05' W 046°22'0 0.0
2018-Aug-11 18:58S 24°05' W 046°22'0 0.0
2018-Aug-11 18:28S 24°05' W 046°22'0 0.2
2018-Aug-11 18:00S 24°05' W 046°22'1 2.3
2018-Aug-11 17:30S 24°07' W 046°22'4 7.3
2018-Aug-11 17:00S 24°10' W 046°23'5 9.5
2018-Aug-11 16:30S 24°15' W 046°24'511.1
2018-Aug-11 16:00S 24°20' W 046°26'713.6
2018-Aug-11 15:30S 24°27' W 046°27'713.6
2018-Aug-11 15:01S 24°33' W 046°28'713.7
2018-Aug-11 14:30S 24°40' W 046°30'913.0
2018-Aug-11 13:48S 24°49' W 046°32'3 8.0
2018-Aug-11 13:24S 24°46' W 046°30'1110.8
2018-Aug-11 12:26S 24°48' W 046°41'613.0
2018-Aug-11 11:58S 24°49' W 046°48'  

Dump ship's entire track history